createdAt,value
2018-01-27T00:01:13.856Z,47.17
2018-01-27T00:03:46.369Z,52.93
2018-01-27T00:06:18.882Z,123.47
2018-01-27T00:08:51.396Z,39.57
2018-01-27T00:11:23.884Z,48.33
2018-01-27T00:13:56.400Z,34.83
2018-01-27T00:16:28.901Z,61.03
2018-01-27T00:19:01.504Z,61.63
2018-01-27T00:21:34.002Z,47.60
2018-01-27T00:24:06.518Z,55.23
2018-01-27T00:26:39.007Z,52.10
2018-01-27T00:29:11.529Z,62.57
2018-01-27T00:31:44.042Z,48.80
2018-01-27T00:34:16.565Z,45.87
2018-01-27T00:36:49.049Z,59.50
2018-01-27T00:39:21.550Z,80.20
2018-01-27T00:41:54.926Z,51.10
2018-01-27T00:44:27.451Z,47.70
2018-01-27T00:46:59.979Z,59.53
2018-01-27T00:49:32.489Z,52.03
2018-01-27T00:52:05.001Z,76.63
2018-01-27T00:54:37.508Z,62.40
2018-01-27T00:57:09.998Z,50.90
2018-01-27T00:59:42.532Z,36.33
2018-01-27T01:02:15.049Z,52.73
2018-01-27T01:04:47.566Z,58.27
2018-01-27T01:07:20.051Z,38.83
2018-01-27T01:09:52.570Z,42.73
2018-01-27T01:12:25.077Z,52.27
2018-01-27T01:14:57.592Z,48.97
2018-01-27T01:17:30.101Z,43.53
2018-01-27T01:20:02.605Z,48.33
2018-01-27T01:22:35.133Z,48.23
2018-01-27T01:25:07.633Z,54.57
2018-01-27T01:27:40.148Z,47.40
2018-01-27T01:30:12.641Z,72.53
2018-01-27T01:32:45.151Z,66.87
2018-01-27T01:35:17.639Z,42.67
2018-01-27T01:37:50.151Z,73.03
2018-01-27T01:40:22.639Z,59.70
2018-01-27T01:43:00.651Z,47.83
2018-01-27T01:45:33.149Z,49.43
2018-01-27T01:48:05.675Z,61.47
2018-01-27T01:50:38.175Z,44.97
2018-01-27T01:53:10.687Z,58.30
2018-01-27T01:55:43.177Z,50.10
2018-01-27T01:58:15.692Z,77.20
2018-01-27T02:00:48.195Z,54.47
2018-01-27T02:03:20.714Z,52.07
2018-01-27T02:05:53.209Z,47.27
2018-01-27T02:08:25.728Z,53.37
2018-01-27T02:10:58.273Z,44.47
2018-01-27T02:13:30.783Z,51.70
2018-01-27T02:16:03.267Z,67.43
2018-01-27T02:18:35.771Z,44.17
2018-01-27T02:21:08.254Z,45.90
2018-01-27T02:23:41.600Z,47.00
2018-01-27T02:26:14.094Z,48.37
2018-01-27T02:28:46.631Z,48.53
2018-01-27T02:31:19.128Z,44.20
2018-01-27T02:33:51.704Z,55.17
2018-01-27T02:36:24.205Z,61.37
2018-01-27T02:38:56.731Z,46.43
2018-01-27T02:41:29.224Z,53.57
2018-01-27T02:44:01.762Z,55.43
2018-01-27T02:46:34.271Z,46.77
2018-01-27T02:49:06.786Z,41.10
2018-01-27T02:51:39.288Z,58.90
2018-01-27T02:54:11.799Z,48.80
2018-01-27T02:56:44.305Z,71.57
2018-01-27T02:59:16.824Z,53.20
2018-01-27T03:01:49.325Z,59.93
2018-01-27T03:04:21.836Z,50.13
2018-01-27T03:06:54.355Z,65.27
2018-01-27T03:09:26.879Z,72.00
2018-01-27T03:11:59.360Z,67.27
2018-01-27T03:14:31.882Z,77.37
2018-01-27T03:17:04.384Z,42.23
2018-01-27T03:19:36.902Z,64.40
2018-01-27T03:22:09.397Z,65.20
2018-01-27T03:24:41.912Z,51.57
2018-01-27T03:27:14.414Z,37.50
2018-01-27T03:29:47.015Z,51.33
2018-01-27T03:32:19.512Z,65.63
2018-01-27T03:34:53.858Z,61.33
2018-01-27T03:37:26.356Z,42.17
2018-01-27T03:39:58.862Z,36.17
2018-01-27T03:42:31.344Z,59.07
2018-01-27T03:45:03.865Z,42.60
2018-01-27T03:47:36.364Z,53.83
2018-01-27T03:50:08.870Z,43.23
2018-01-27T03:52:41.448Z,49.30
2018-01-27T03:55:13.957Z,45.90
2018-01-27T03:57:46.449Z,43.33
2018-01-27T04:00:18.962Z,47.97
2018-01-27T04:02:51.459Z,59.90
2018-01-27T04:05:23.981Z,54.83
2018-01-27T04:07:56.466Z,43.90
2018-01-27T04:10:29.062Z,38.13
2018-01-27T04:13:01.550Z,44.20
2018-01-27T04:15:34.059Z,72.80
2018-01-27T04:18:06.545Z,35.50
2018-01-27T04:20:39.091Z,69.23
2018-01-27T04:23:11.590Z,66.70
2018-01-27T04:25:44.107Z,34.23
2018-01-27T04:28:16.599Z,35.87
2018-01-27T04:30:49.138Z,42.40
2018-01-27T04:33:21.635Z,39.67
2018-01-27T04:35:54.147Z,51.33
2018-01-27T04:38:26.641Z,129.63
2018-01-27T04:40:59.162Z,48.63
2018-01-27T04:43:31.666Z,76.50
2018-01-27T04:46:04.186Z,87.40
2018-01-27T04:48:36.715Z,51.00
2018-01-27T04:51:09.201Z,47.07
2018-01-27T04:53:41.712Z,59.03
2018-01-27T04:56:14.209Z,43.50
2018-01-27T04:58:46.727Z,46.87
2018-01-27T05:01:19.220Z,59.73
2018-01-27T05:03:51.735Z,50.87
2018-01-27T05:06:24.249Z,47.50
2018-01-27T05:08:56.767Z,59.00
2018-01-27T05:11:29.264Z,43.93
2018-01-27T05:14:01.768Z,70.47
2018-01-27T05:16:34.241Z,53.10
2018-01-27T05:19:06.753Z,55.63
2018-01-27T05:21:39.270Z,93.90
2018-01-27T05:24:11.800Z,54.03
2018-01-27T05:26:44.282Z,54.80
2018-01-27T05:29:16.797Z,46.57
2018-01-27T05:31:49.301Z,69.93
2018-01-27T05:34:21.825Z,58.27
2018-01-27T05:36:55.381Z,92.70
2018-01-27T05:39:27.896Z,63.20
2018-01-27T05:42:00.392Z,81.00
2018-01-27T05:44:32.895Z,44.63
2018-01-27T05:47:05.397Z,46.10
2018-01-27T05:49:37.911Z,43.67
2018-01-27T05:52:10.415Z,51.73
2018-01-27T05:54:42.957Z,59.00
2018-01-27T05:57:15.448Z,69.87
2018-01-27T05:59:47.957Z,40.00
2018-01-27T06:02:20.459Z,48.73
2018-01-27T06:04:52.984Z,44.70
2018-01-27T06:07:25.479Z,55.40
2018-01-27T06:09:57.990Z,51.87
2018-01-27T06:12:30.482Z,61.70
2018-01-27T06:15:03.002Z,43.43
2018-01-27T06:17:35.489Z,41.80
2018-01-27T06:20:08.011Z,43.70
2018-01-27T06:22:40.509Z,46.87
2018-01-27T06:25:13.015Z,50.23
2018-01-27T06:27:45.510Z,39.00
2018-01-27T06:30:18.031Z,47.27
2018-01-27T06:32:50.512Z,54.37
2018-01-27T06:35:23.030Z,51.17
2018-01-27T06:37:55.537Z,44.70
2018-01-27T06:40:28.058Z,42.93
2018-01-27T06:43:00.565Z,45.63
2018-01-27T06:45:33.074Z,53.17
2018-01-27T06:48:06.504Z,86.37
2018-01-27T06:50:39.018Z,44.13
2018-01-27T06:53:11.511Z,37.30
2018-01-27T06:55:44.023Z,52.10
2018-01-27T06:58:16.683Z,37.70
2018-01-27T07:00:49.191Z,59.87
2018-01-27T07:03:21.685Z,57.97
2018-01-27T07:05:54.208Z,55.00
2018-01-27T07:08:26.709Z,106.93
2018-01-27T07:10:59.215Z,53.07
2018-01-27T07:13:31.709Z,49.87
2018-01-27T07:16:04.217Z,66.20
2018-01-27T07:18:37.274Z,54.47
2018-01-27T07:21:09.815Z,50.40
2018-01-27T07:23:42.352Z,33.10
2018-01-27T07:26:14.867Z,79.20
2018-01-27T07:28:48.279Z,90.83
2018-01-27T07:31:27.176Z,60.13
2018-01-27T07:33:59.672Z,100.13
2018-01-27T07:36:32.189Z,96.67
2018-01-27T07:39:04.693Z,74.40
2018-01-27T07:41:37.219Z,81.60
2018-01-27T07:44:09.716Z,93.20
2018-01-27T07:46:42.226Z,98.63
2018-01-27T07:49:14.720Z,85.10
2018-01-27T07:51:47.226Z,39.63
2018-01-27T07:54:19.722Z,76.93
2018-01-27T07:56:52.227Z,45.13
2018-01-27T07:59:24.750Z,61.07
2018-01-27T08:01:57.266Z,70.33
2018-01-27T08:04:29.755Z,44.70
2018-01-27T08:07:02.514Z,60.67
2018-01-27T08:09:35.056Z,42.63
2018-01-27T08:12:07.574Z,48.47
2018-01-27T08:14:40.084Z,81.53
2018-01-27T08:17:12.598Z,65.37
2018-01-27T08:19:45.101Z,49.90
2018-01-27T08:22:17.621Z,62.33
2018-01-27T08:24:50.164Z,53.50
2018-01-27T08:27:22.667Z,45.77
2018-01-27T08:29:55.180Z,56.00
2018-01-27T08:32:27.737Z,55.67
2018-01-27T08:35:00.246Z,59.37
2018-01-27T08:37:32.728Z,52.23
2018-01-27T08:40:05.246Z,49.87
2018-01-27T08:42:38.548Z,49.13
2018-01-27T08:45:11.094Z,58.53
2018-01-27T08:47:43.605Z,57.40
2018-01-27T08:50:16.129Z,43.53
2018-01-27T08:52:48.639Z,42.70
2018-01-27T08:55:22.071Z,52.20
2018-01-27T08:57:54.602Z,63.83
2018-01-27T09:00:27.116Z,63.77
2018-01-27T09:02:59.619Z,54.33
2018-01-27T09:05:32.157Z,53.10
2018-01-27T09:08:04.651Z,66.00
2018-01-27T09:10:37.644Z,61.97
2018-01-27T09:13:10.277Z,48.40
2018-01-27T09:15:42.897Z,66.67
2018-01-27T09:18:15.408Z,61.87
2018-01-27T09:20:47.925Z,56.23
2018-01-27T09:23:20.418Z,48.17
2018-01-27T09:25:52.964Z,52.57
2018-01-27T09:28:25.459Z,59.77
2018-01-27T09:30:57.979Z,52.43
2018-01-27T09:33:30.500Z,59.53
2018-01-27T09:36:03.012Z,67.23
2018-01-27T09:38:35.561Z,47.17
2018-01-27T09:41:08.140Z,49.17
2018-01-27T09:43:40.628Z,49.30
2018-01-27T09:46:13.161Z,60.47
2018-01-27T09:48:45.673Z,59.40
2018-01-27T09:51:18.191Z,77.93
2018-01-27T09:53:50.679Z,45.90
2018-01-27T09:56:23.226Z,60.27
2018-01-27T09:58:55.767Z,56.00
2018-01-27T10:01:28.297Z,45.10
2018-01-27T10:04:00.795Z,59.53
2018-01-27T10:06:33.309Z,74.00
2018-01-27T10:09:05.837Z,60.27
2018-01-27T10:11:38.345Z,67.13
2018-01-27T10:14:10.834Z,58.67
2018-01-27T10:16:43.368Z,50.20
2018-01-27T10:19:15.882Z,58.60
2018-01-27T10:21:48.407Z,68.13
2018-01-27T10:24:20.897Z,57.53
2018-01-27T10:26:53.410Z,64.37
2018-01-27T10:29:25.916Z,59.43
2018-01-27T10:31:58.432Z,65.37
2018-01-27T10:34:30.919Z,71.90
2018-01-27T10:37:03.425Z,74.17
2018-01-27T10:39:35.917Z,73.60
2018-01-27T10:42:08.452Z,67.40
2018-01-27T10:44:40.946Z,69.20
2018-01-27T10:47:13.464Z,61.00
2018-01-27T10:49:45.955Z,59.07
2018-01-27T10:52:18.495Z,68.03
2018-01-27T10:54:51.069Z,71.63
2018-01-27T10:57:23.609Z,71.03
2018-01-27T10:59:56.103Z,64.70
2018-01-27T11:02:28.615Z,74.03
2018-01-27T11:05:01.095Z,65.23
2018-01-27T11:07:33.638Z,68.10
2018-01-27T11:10:06.136Z,68.00
2018-01-27T11:12:38.651Z,72.03
2018-01-27T11:15:11.139Z,77.07
2018-01-27T11:17:43.683Z,67.77
2018-01-27T11:20:16.208Z,65.27
2018-01-27T11:22:48.728Z,72.90
2018-01-27T11:25:21.487Z,76.50
2018-01-27T11:27:54.434Z,67.67
2018-01-27T11:30:27.287Z,70.47
2018-01-27T11:33:00.087Z,71.07
2018-01-27T11:35:33.014Z,69.57
2018-01-27T11:38:05.939Z,77.87
2018-01-27T11:40:38.444Z,67.50
2018-01-27T11:43:11.417Z,72.73
2018-01-27T11:45:44.001Z,81.27
2018-01-27T11:48:16.843Z,66.90
2018-01-27T11:50:49.651Z,75.53
2018-01-27T11:53:22.365Z,63.57
2018-01-27T11:55:55.148Z,64.80
2018-01-27T11:58:27.700Z,61.77
2018-01-27T12:01:00.451Z,66.00
2018-01-27T12:03:32.980Z,58.80
2018-01-27T12:06:05.504Z,70.37
2018-01-27T12:08:39.113Z,65.03
2018-01-27T12:11:12.137Z,68.60
2018-01-27T12:13:44.878Z,67.23
2018-01-27T12:16:17.496Z,64.43
2018-01-27T12:18:50.006Z,68.20
2018-01-27T12:21:22.737Z,64.37
2018-01-27T12:23:55.599Z,57.40
2018-01-27T12:26:28.115Z,59.50
2018-01-27T12:29:00.616Z,61.87
2018-01-27T12:31:33.139Z,62.33
2018-01-27T12:34:05.642Z,68.73
2018-01-27T12:36:38.160Z,58.77
2018-01-27T12:39:10.652Z,56.90
2018-01-27T12:41:43.158Z,61.83
2018-01-27T12:44:15.655Z,65.40
2018-01-27T12:46:48.175Z,54.93
2018-01-27T12:49:20.788Z,61.77
2018-01-27T12:51:53.309Z,57.23
2018-01-27T12:54:25.812Z,54.33
2018-01-27T12:56:58.341Z,58.00
2018-01-27T12:59:30.850Z,59.87
2018-01-27T13:02:03.356Z,49.57
2018-01-27T13:04:35.843Z,62.40
2018-01-27T13:07:08.364Z,55.10
2018-01-27T13:09:40.892Z,50.73
2018-01-27T13:12:13.415Z,59.20
2018-01-27T13:14:45.949Z,63.13
2018-01-27T13:17:18.472Z,50.37
2018-01-27T13:19:50.975Z,50.90
2018-01-27T13:22:23.592Z,61.17
2018-01-27T13:24:56.118Z,56.43
2018-01-27T13:27:28.642Z,56.93
2018-01-27T13:30:01.150Z,52.83
2018-01-27T13:32:33.669Z,59.47
2018-01-27T13:35:06.174Z,54.60
2018-01-27T13:37:38.683Z,57.43
2018-01-27T13:40:11.181Z,48.37
2018-01-27T13:42:43.716Z,56.83
2018-01-27T13:45:16.217Z,48.93
2018-01-27T13:47:48.770Z,57.17
2018-01-27T13:50:21.268Z,48.90
2018-01-27T13:52:53.772Z,50.07
2018-01-27T13:55:26.266Z,47.50
2018-01-27T13:57:58.776Z,52.47
2018-01-27T14:00:31.282Z,51.30
2018-01-27T14:03:03.822Z,49.60
2018-01-27T14:05:36.329Z,47.43
2018-01-27T14:08:08.845Z,48.17
2018-01-27T14:10:41.448Z,46.20
2018-01-27T14:13:13.951Z,46.13
2018-01-27T14:15:46.450Z,45.77
2018-01-27T14:18:18.960Z,47.13
2018-01-27T14:20:51.456Z,46.00
2018-01-27T14:23:23.988Z,50.30
2018-01-27T14:25:56.513Z,47.90
2018-01-27T14:28:29.033Z,50.77
2018-01-27T14:31:01.531Z,44.30
2018-01-27T14:33:34.035Z,46.70
2018-01-27T14:36:06.519Z,39.73
2018-01-27T14:38:39.034Z,44.50
2018-01-27T14:41:11.518Z,42.53
2018-01-27T14:43:44.030Z,43.47
2018-01-27T14:46:16.527Z,41.40
2018-01-27T14:48:49.062Z,37.73
2018-01-27T14:51:21.577Z,49.80
2018-01-27T14:53:54.152Z,36.50
2018-01-27T14:56:26.655Z,41.40
2018-01-27T14:58:59.174Z,42.83
2018-01-27T15:01:31.667Z,44.83
2018-01-27T15:04:04.174Z,45.83
2018-01-27T15:06:36.668Z,38.87
2018-01-27T15:09:09.180Z,44.77
2018-01-27T15:11:41.680Z,39.60
2018-01-27T15:14:14.214Z,41.40
2018-01-27T15:16:46.716Z,38.87
2018-01-27T15:19:19.235Z,38.80
2018-01-27T15:21:51.734Z,34.97
2018-01-27T15:24:24.268Z,34.73
2018-01-27T15:26:56.763Z,36.43
2018-01-27T15:29:30.193Z,38.13
2018-01-27T15:32:02.701Z,34.80
2018-01-27T15:34:35.270Z,41.07
2018-01-27T15:37:07.769Z,35.70
2018-01-27T15:39:40.277Z,38.07
2018-01-27T15:42:12.767Z,34.20
2018-01-27T15:44:45.376Z,38.30
2018-01-27T15:47:17.857Z,37.77
2018-01-27T15:49:50.367Z,36.63
2018-01-27T15:52:22.910Z,39.23
2018-01-27T15:54:55.446Z,39.47
2018-01-27T15:57:27.965Z,37.57
2018-01-27T16:00:00.468Z,38.70
2018-01-27T16:02:32.980Z,39.40
2018-01-27T16:05:05.638Z,41.67
2018-01-27T16:07:38.239Z,43.47
2018-01-27T16:10:10.794Z,39.57
2018-01-27T16:12:43.316Z,43.93
2018-01-27T16:15:15.814Z,43.83
2018-01-27T16:17:48.355Z,39.07
2018-01-27T16:20:20.851Z,40.27
2018-01-27T16:22:53.366Z,39.23
2018-01-27T16:25:27.803Z,42.93
2018-01-27T16:28:00.316Z,41.30
2018-01-27T16:30:32.826Z,39.50
2018-01-27T16:33:05.338Z,42.10
2018-01-27T16:35:37.829Z,43.17
2018-01-27T16:38:10.336Z,38.43
2018-01-27T16:40:42.835Z,38.43
2018-01-27T16:43:15.358Z,42.90
2018-01-27T16:45:47.873Z,38.20
2018-01-27T16:48:20.421Z,35.30
2018-01-27T16:50:52.937Z,40.67
2018-01-27T16:53:25.451Z,33.57
2018-01-27T16:55:57.943Z,33.00
2018-01-27T16:58:30.454Z,38.90
2018-01-27T17:01:02.953Z,35.87
2018-01-27T17:03:35.464Z,32.77
2018-01-27T17:06:07.951Z,30.90
2018-01-27T17:08:40.463Z,30.53
2018-01-27T17:11:12.950Z,32.90
2018-01-27T17:13:45.497Z,30.90
2018-01-27T17:16:17.982Z,35.53
2018-01-27T17:18:50.553Z,32.93
2018-01-27T17:21:28.996Z,38.63
2018-01-27T17:24:01.505Z,46.23
2018-01-27T17:26:33.999Z,43.77
2018-01-27T17:29:06.517Z,38.97
2018-01-27T17:31:39.016Z,45.93
2018-01-27T17:34:11.529Z,42.47
2018-01-27T17:36:44.121Z,46.40
2018-01-27T17:39:16.655Z,41.90
2018-01-27T17:41:49.154Z,45.20
2018-01-27T17:44:21.673Z,50.97
2018-01-27T17:46:54.172Z,46.40
2018-01-27T17:49:26.687Z,48.87
2018-01-27T17:51:59.194Z,49.50
2018-01-27T17:54:31.715Z,47.97
2018-01-27T17:57:04.211Z,49.57
2018-01-27T18:02:15.640Z,51.33
2018-01-27T18:04:48.142Z,45.97
2018-01-27T18:07:20.639Z,48.70
2018-01-27T18:09:53.174Z,50.10
2018-01-27T18:12:25.689Z,47.20
2018-01-27T18:14:58.211Z,47.20
2018-01-27T18:17:30.711Z,45.27
2018-01-27T18:20:03.214Z,50.13
2018-01-27T18:22:35.719Z,55.43
2018-01-27T18:25:08.311Z,45.80
2018-01-27T18:27:40.830Z,56.83
2018-01-27T18:30:13.639Z,52.60
2018-01-27T18:32:46.256Z,49.80
2018-01-27T18:35:18.775Z,46.93
2018-01-27T18:37:51.306Z,47.97
2018-01-27T18:40:23.805Z,47.33
2018-01-27T18:42:56.309Z,45.83
2018-01-27T18:45:28.836Z,50.17
2018-01-27T18:48:01.337Z,52.90
2018-01-27T18:50:33.846Z,47.83
2018-01-27T18:53:06.398Z,52.33
2018-01-27T18:55:38.908Z,47.27
2018-01-27T18:58:11.403Z,53.70
2018-01-27T19:00:43.926Z,55.53
2018-01-27T19:03:16.442Z,47.97
2018-01-27T19:05:48.954Z,48.37
2018-01-27T19:08:21.444Z,47.57
2018-01-27T19:10:53.971Z,47.87
2018-01-27T19:13:26.513Z,46.10
2018-01-27T19:15:59.037Z,48.30
2018-01-27T19:18:31.554Z,45.23
2018-01-27T19:21:04.066Z,42.20
2018-01-27T19:23:36.617Z,39.37
2018-01-27T19:26:09.225Z,41.97
2018-01-27T19:28:41.848Z,43.83
2018-01-27T19:31:14.399Z,41.00
2018-01-27T19:33:46.916Z,42.60
2018-01-27T19:36:19.419Z,38.47
2018-01-27T19:38:51.947Z,39.27
2018-01-27T19:41:24.552Z,38.63
2018-01-27T19:43:57.079Z,33.20
2018-01-27T19:46:29.569Z,36.13
2018-01-27T19:49:02.084Z,30.87
2018-01-27T19:51:34.589Z,28.60
2018-01-27T19:54:07.111Z,31.00
2018-01-27T19:56:39.613Z,32.30
2018-01-27T19:59:12.416Z,30.57
2018-01-27T20:01:44.955Z,26.93
2018-01-27T20:04:17.477Z,32.07
2018-01-27T20:06:49.963Z,28.80
2018-01-27T20:09:22.541Z,27.90
2018-01-27T20:11:55.114Z,28.03
2018-01-27T20:14:28.825Z,26.93
2018-01-27T20:17:01.604Z,24.93
2018-01-27T20:19:34.151Z,27.43
2018-01-27T20:22:06.694Z,25.43
2018-01-27T20:24:39.232Z,26.43
2018-01-27T20:27:11.730Z,28.33
2018-01-27T20:29:44.282Z,27.00
2018-01-27T20:32:16.912Z,25.13
2018-01-27T20:34:49.410Z,23.87
2018-01-27T20:37:21.992Z,26.53
2018-01-27T20:39:54.470Z,23.07
2018-01-27T20:42:26.992Z,24.17
2018-01-27T20:44:59.495Z,21.37
2018-01-27T20:47:32.005Z,20.03
2018-01-27T20:50:04.527Z,24.50
2018-01-27T20:52:37.038Z,21.67
2018-01-27T20:55:09.544Z,22.67
2018-01-27T20:57:42.054Z,20.87
2018-01-27T21:00:14.586Z,19.50
2018-01-27T21:02:47.086Z,20.07
2018-01-27T21:05:19.590Z,21.23
2018-01-27T21:07:52.092Z,22.13
2018-01-27T21:10:24.591Z,21.47
2018-01-27T21:12:57.137Z,16.33
2018-01-27T21:15:29.626Z,19.53
2018-01-27T21:18:02.118Z,19.13
2018-01-27T21:20:34.613Z,16.67
2018-01-27T21:23:07.109Z,19.20
2018-01-27T21:25:39.638Z,17.03
2018-01-27T21:28:12.370Z,16.50
2018-01-27T21:30:44.887Z,18.00
2018-01-27T21:33:17.376Z,18.00
2018-01-27T21:35:49.874Z,17.50
2018-01-27T21:38:22.372Z,14.70
2018-01-27T21:40:54.866Z,15.30
2018-01-27T21:43:27.367Z,17.53
2018-01-27T21:45:59.904Z,14.03
2018-01-27T21:48:32.414Z,17.77
2018-01-27T21:51:04.906Z,16.00
2018-01-27T21:53:37.388Z,14.30
2018-01-27T21:56:09.898Z,14.13
2018-01-27T21:58:42.387Z,17.30
2018-01-27T22:01:14.895Z,13.77
2018-01-27T22:03:47.387Z,12.83
2018-01-27T22:06:19.886Z,15.77
2018-01-27T22:08:52.399Z,14.73
2018-01-27T22:11:24.890Z,15.97
2018-01-27T22:13:57.380Z,12.47
2018-01-27T22:16:29.886Z,17.47
2018-01-27T22:19:02.397Z,13.63
2018-01-27T22:21:34.897Z,14.43
2018-01-27T22:24:07.389Z,12.53
2018-01-27T22:26:39.892Z,14.37
2018-01-27T22:29:12.412Z,18.30
2018-01-27T22:31:44.918Z,15.60
2018-01-27T22:34:17.427Z,13.43
2018-01-27T22:36:49.931Z,12.50
2018-01-27T22:39:22.433Z,14.50
2018-01-27T22:41:54.938Z,11.93
2018-01-27T22:44:27.428Z,14.57
2018-01-27T22:46:59.925Z,11.23
2018-01-27T22:49:32.432Z,13.37
2018-01-27T22:52:04.928Z,13.47
2018-01-27T22:54:37.414Z,11.77
2018-01-27T22:57:09.910Z,10.47
2018-01-27T22:59:42.424Z,9.80
2018-01-27T23:02:14.937Z,9.63
2018-01-27T23:04:47.451Z,13.50
2018-01-27T23:07:19.943Z,9.77
2018-01-27T23:09:52.465Z,16.23
2018-01-27T23:12:24.967Z,13.00
2018-01-27T23:14:57.487Z,14.13
2018-01-27T23:17:29.986Z,11.47
2018-01-27T23:20:02.506Z,14.90
2018-01-27T23:22:35.004Z,13.93
2018-01-27T23:25:07.510Z,12.67
2018-01-27T23:27:40.015Z,14.70
2018-01-27T23:30:12.561Z,13.23
2018-01-27T23:32:45.079Z,14.27
2018-01-27T23:35:17.608Z,13.40
2018-01-27T23:37:51.068Z,11.67
2018-01-27T23:40:23.608Z,13.70
2018-01-27T23:42:56.099Z,17.33
2018-01-27T23:45:28.636Z,12.57
2018-01-27T23:48:01.131Z,15.07
2018-01-27T23:50:33.642Z,16.10
2018-01-27T23:53:06.145Z,18.53
2018-01-27T23:55:38.705Z,13.20
2018-01-27T23:58:11.209Z,17.43
